Decherd, Tennessee
Current Conditions -  °F | °C
As of 9:35 PM on Friday 28 Nov 2014 (Local Time) from KBGF Reporting Station
Clear Clear  
Wind Chill: 37°   Ceiling: Unl
Heat Index: 37°   Visibility: 10mi
Dew Point: 21°   Wind: 3mph
Humidity: 52%   Direction: 150°SSE
Pressure: 30.2"   Gusts: NA
Location:  35.21°N, 86.08°W
Report Text: KBGF 290335Z AUTO 15003KT 10SM CLR 03/M06 A3020 RMK
Loading
Personal Weather Stations






























Interactive Weather Map New forecast layout! Learn more

10-Day Weather Forecast

Advertisements
Track Severe Weather on mobile